createdAt,value
2018-02-25T00:01:08.775Z,-5.69
2018-02-25T00:03:36.274Z,-5.64
2018-02-25T00:06:03.753Z,-5.57
2018-02-25T00:08:31.291Z,-5.55
2018-02-25T00:10:58.739Z,-5.58
2018-02-25T00:13:26.242Z,-5.64
2018-02-25T00:15:53.702Z,-5.67
2018-02-25T00:18:21.178Z,-5.64
2018-02-25T00:20:48.653Z,-5.66
2018-02-25T00:23:16.225Z,-5.70
2018-02-25T00:25:43.693Z,-5.74
2018-02-25T00:28:11.161Z,-5.80
2018-02-25T00:30:38.643Z,-5.79
2018-02-25T00:33:06.158Z,-5.78
2018-02-25T00:35:33.626Z,-5.79
2018-02-25T00:38:01.096Z,-5.83
2018-02-25T00:40:28.568Z,-5.86
2018-02-25T00:42:56.055Z,-5.91
2018-02-25T00:45:23.539Z,-5.93
2018-02-25T00:47:51.053Z,-5.97
2018-02-25T00:50:18.522Z,-6.01
2018-02-25T00:52:46.082Z,-6.02
2018-02-25T00:55:13.565Z,-5.96
2018-02-25T00:57:41.030Z,-5.99
2018-02-25T01:00:08.546Z,-6.01
2018-02-25T01:02:36.027Z,-6.01
2018-02-25T01:05:03.563Z,-6.02
2018-02-25T01:07:31.047Z,-6.08
2018-02-25T01:09:58.514Z,-6.10
2018-02-25T01:12:25.990Z,-6.10
2018-02-25T01:14:53.494Z,-6.10
2018-02-25T01:17:20.958Z,-6.14
2018-02-25T01:19:48.434Z,-6.16
2018-02-25T01:22:15.943Z,-6.21
2018-02-25T01:24:43.398Z,-6.19
2018-02-25T01:27:10.909Z,-6.20
2018-02-25T01:29:38.367Z,-6.19
2018-02-25T01:32:05.891Z,-6.24
2018-02-25T01:34:33.375Z,-6.25
2018-02-25T01:37:00.906Z,-6.26
2018-02-25T01:39:28.363Z,-6.25
2018-02-25T01:41:55.821Z,-6.25
2018-02-25T01:44:23.318Z,-6.24
2018-02-25T01:46:50.782Z,-6.23
2018-02-25T01:49:18.353Z,-6.25
2018-02-25T01:51:45.842Z,-6.27
2018-02-25T01:54:13.322Z,-6.30
2018-02-25T01:56:40.926Z,-6.36
2018-02-25T01:59:08.389Z,-6.42
2018-02-25T02:01:35.991Z,-6.40
2018-02-25T02:04:03.448Z,-6.38
2018-02-25T02:06:30.906Z,-6.37
2018-02-25T02:08:58.382Z,-6.37
2018-02-25T02:11:25.843Z,-6.38
2018-02-25T02:13:53.382Z,-6.38
2018-02-25T02:16:20.863Z,-6.40
2018-02-25T02:18:48.394Z,-6.39
2018-02-25T02:21:15.878Z,-6.40
2018-02-25T02:23:43.335Z,-6.45
2018-02-25T02:26:10.789Z,-6.46
2018-02-25T02:28:38.262Z,-6.47
2018-02-25T02:31:05.722Z,-6.49
2018-02-25T02:33:33.242Z,-6.52
2018-02-25T02:36:00.708Z,-6.51
2018-02-25T02:38:28.165Z,-6.53
2018-02-25T02:40:55.645Z,-6.53
2018-02-25T02:43:23.108Z,-6.55
2018-02-25T02:45:50.577Z,-6.59
2018-02-25T02:48:18.058Z,-6.56
2018-02-25T02:50:45.520Z,-6.58
2018-02-25T02:53:12.979Z,-6.58
2018-02-25T02:55:40.568Z,-6.62
2018-02-25T02:58:08.061Z,-6.66
2018-02-25T03:00:35.524Z,-6.67
2018-02-25T03:03:02.988Z,-6.65
2018-02-25T03:05:30.479Z,-6.70
2018-02-25T03:07:58.109Z,-6.74
2018-02-25T03:10:25.561Z,-6.76
2018-02-25T03:12:53.030Z,-6.79
2018-02-25T03:15:20.492Z,-6.77
2018-02-25T03:17:47.968Z,-6.76
2018-02-25T03:20:15.422Z,-6.79
2018-02-25T03:22:42.990Z,-6.82
2018-02-25T03:25:10.449Z,-6.82
2018-02-25T03:27:37.976Z,-6.84
2018-02-25T03:30:05.459Z,-6.83
2018-02-25T03:32:32.922Z,-6.87
2018-02-25T03:35:00.378Z,-6.89
2018-02-25T03:37:27.942Z,-6.92
2018-02-25T03:39:55.402Z,-6.94
2018-02-25T03:42:22.887Z,-6.98
2018-02-25T03:44:50.362Z,-6.96
2018-02-25T03:47:17.827Z,-6.96
2018-02-25T03:49:45.325Z,-7.01
2018-02-25T03:52:12.887Z,-7.02
2018-02-25T03:54:40.362Z,-7.00
2018-02-25T03:57:07.851Z,-7.00
2018-02-25T03:59:35.322Z,-7.06
2018-02-25T04:02:02.784Z,-7.10
2018-02-25T04:04:30.262Z,-7.13
2018-02-25T04:06:57.721Z,-7.17
2018-02-25T04:09:25.179Z,-7.17
2018-02-25T04:11:52.670Z,-7.14
2018-02-25T04:14:20.126Z,-7.16
2018-02-25T04:16:47.602Z,-7.14
2018-02-25T04:19:15.121Z,-7.18
2018-02-25T04:21:42.590Z,-7.19
2018-02-25T04:24:10.090Z,-7.20
2018-02-25T04:26:37.602Z,-7.24
2018-02-25T04:29:05.058Z,-7.22
2018-02-25T04:31:32.526Z,-7.18
2018-02-25T04:34:00.063Z,-7.19
2018-02-25T04:36:27.527Z,-7.23
2018-02-25T04:38:55.006Z,-7.25
2018-02-25T04:41:22.466Z,-7.29
2018-02-25T04:43:49.936Z,-7.30
2018-02-25T04:46:17.450Z,-7.27
2018-02-25T04:48:44.906Z,-7.26
2018-02-25T04:51:12.361Z,-7.27
2018-02-25T04:53:39.841Z,-7.24
2018-02-25T04:56:07.299Z,-7.22
2018-02-25T04:58:34.760Z,-7.31
2018-02-25T05:01:02.229Z,-7.36
2018-02-25T05:03:29.712Z,-7.38
2018-02-25T05:05:57.174Z,-7.41
2018-02-25T05:08:24.627Z,-7.41
2018-02-25T05:10:52.097Z,-7.42
2018-02-25T05:13:19.550Z,-7.47
2018-02-25T05:15:47.025Z,-7.49
2018-02-25T05:18:14.502Z,-7.51
2018-02-25T05:20:41.963Z,-7.53
2018-02-25T05:23:09.514Z,-7.53
2018-02-25T05:25:37.066Z,-7.55
2018-02-25T05:28:04.517Z,-7.52
2018-02-25T05:30:31.983Z,-7.51
2018-02-25T05:32:59.440Z,-7.51
2018-02-25T05:35:26.925Z,-7.52
2018-02-25T05:37:54.454Z,-7.52
2018-02-25T05:40:22.018Z,-7.54
2018-02-25T05:42:49.542Z,-7.53
2018-02-25T05:45:16.994Z,-7.52
2018-02-25T05:47:44.493Z,-7.50
2018-02-25T05:50:11.987Z,-7.49
2018-02-25T05:52:39.457Z,-7.37
2018-02-25T05:55:06.909Z,-7.44
2018-02-25T05:57:34.400Z,-7.49
2018-02-25T06:00:01.879Z,-7.57
2018-02-25T06:02:29.364Z,-7.58
2018-02-25T06:04:56.829Z,-7.63
2018-02-25T06:07:24.302Z,-7.64
2018-02-25T06:09:51.779Z,-7.64
2018-02-25T06:12:19.234Z,-7.67
2018-02-25T06:14:46.694Z,-7.71
2018-02-25T06:17:14.172Z,-7.75
2018-02-25T06:19:41.625Z,-7.76
2018-02-25T06:22:09.083Z,-7.76
2018-02-25T06:24:36.655Z,-7.77
2018-02-25T06:27:04.109Z,-7.72
2018-02-25T06:29:31.582Z,-7.75
2018-02-25T06:31:59.067Z,-7.70
2018-02-25T06:34:26.589Z,-7.71
2018-02-25T06:36:54.062Z,-7.69
2018-02-25T06:39:21.535Z,-7.71
2018-02-25T06:41:48.999Z,-7.71
2018-02-25T06:44:16.461Z,-7.72
2018-02-25T06:46:43.946Z,-7.67
2018-02-25T06:49:11.429Z,-7.68
2018-02-25T06:51:38.889Z,-7.66
2018-02-25T06:54:06.362Z,-7.66
2018-02-25T06:56:33.845Z,-7.63
2018-02-25T06:59:01.302Z,-7.59
2018-02-25T07:01:28.770Z,-7.55
2018-02-25T07:03:56.222Z,-7.54
2018-02-25T07:06:23.727Z,-7.51
2018-02-25T07:08:51.190Z,-7.47
2018-02-25T07:11:18.683Z,-7.46
2018-02-25T07:13:46.145Z,-7.40
2018-02-25T07:16:13.602Z,-7.34
2018-02-25T07:18:41.113Z,-7.35
2018-02-25T07:21:08.677Z,-7.30
2018-02-25T07:23:36.158Z,-7.18
2018-02-25T07:26:03.691Z,-7.13
2018-02-25T07:28:31.138Z,-7.02
2018-02-25T07:30:58.611Z,-7.01
2018-02-25T07:33:26.103Z,-6.95
2018-02-25T07:35:53.615Z,-6.87
2018-02-25T07:38:21.093Z,-6.79
2018-02-25T07:40:48.550Z,-6.77
2018-02-25T07:43:16.010Z,-6.68
2018-02-25T07:45:43.474Z,-6.60
2018-02-25T07:48:10.930Z,-6.49
2018-02-25T07:50:38.470Z,-6.50
2018-02-25T07:53:05.938Z,-6.45
2018-02-25T07:55:33.478Z,-6.51
2018-02-25T07:58:00.950Z,-6.52
2018-02-25T08:00:28.406Z,-6.34
2018-02-25T08:02:55.873Z,-6.25
2018-02-25T08:05:23.362Z,-6.21
2018-02-25T08:07:50.824Z,-6.08
2018-02-25T08:10:18.286Z,-5.94
2018-02-25T08:12:45.792Z,-5.77
2018-02-25T08:15:13.286Z,-5.70
2018-02-25T08:17:40.759Z,-5.68
2018-02-25T08:20:08.228Z,-5.71
2018-02-25T08:22:35.820Z,-5.72
2018-02-25T08:25:03.370Z,-5.65
2018-02-25T08:27:30.829Z,-5.47
2018-02-25T08:29:58.385Z,-5.35
2018-02-25T08:32:25.846Z,-5.29
2018-02-25T08:34:53.317Z,-5.21
2018-02-25T08:37:20.786Z,-5.16
2018-02-25T08:39:48.242Z,-5.19
2018-02-25T08:42:15.774Z,-5.21
2018-02-25T08:44:43.238Z,-5.15
2018-02-25T08:47:10.727Z,-5.14
2018-02-25T08:49:38.198Z,-5.16
2018-02-25T08:52:05.663Z,-5.19
2018-02-25T08:54:33.162Z,-4.98
2018-02-25T08:57:00.727Z,-4.85
2018-02-25T08:59:28.196Z,-4.97
2018-02-25T09:01:56.539Z,-4.87
2018-02-25T09:04:24.014Z,-4.74
2018-02-25T09:06:51.567Z,-4.65
2018-02-25T09:09:19.035Z,-4.66
2018-02-25T09:11:46.499Z,-4.51
2018-02-25T09:14:14.055Z,-4.51
2018-02-25T09:16:41.517Z,-4.46
2018-02-25T09:19:08.978Z,-4.42
2018-02-25T09:21:36.469Z,-4.49
2018-02-25T09:24:03.958Z,-4.48
2018-02-25T09:26:31.487Z,-4.54
2018-02-25T09:28:58.960Z,-4.41
2018-02-25T09:31:26.422Z,-4.32
2018-02-25T09:33:53.884Z,-4.05
2018-02-25T09:36:21.417Z,-4.12
2018-02-25T09:38:48.874Z,-4.05
2018-02-25T09:41:16.351Z,-4.12
2018-02-25T09:43:43.818Z,-4.02
2018-02-25T09:46:11.407Z,-4.04
2018-02-25T09:48:38.885Z,-4.05
2018-02-25T09:51:06.350Z,-3.99
2018-02-25T09:53:33.846Z,-3.90
2018-02-25T09:56:01.310Z,-3.94
2018-02-25T09:58:29.154Z,-3.92
2018-02-25T10:00:56.635Z,-3.97
2018-02-25T10:03:24.113Z,-4.04
2018-02-25T10:05:51.587Z,-3.92
2018-02-25T10:08:19.053Z,-3.59
2018-02-25T10:10:46.534Z,-3.29
2018-02-25T10:13:13.993Z,-3.11
2018-02-25T10:15:41.471Z,-3.17
2018-02-25T10:18:08.962Z,-3.06
2018-02-25T10:20:36.414Z,-2.87
2018-02-25T10:23:03.906Z,-2.78
2018-02-25T10:25:31.354Z,-2.73
2018-02-25T10:27:58.816Z,-2.80
2018-02-25T10:30:26.293Z,-2.72
2018-02-25T10:32:53.746Z,-2.61
2018-02-25T10:35:21.202Z,-2.41
2018-02-25T10:37:48.729Z,-2.37
2018-02-25T10:40:16.221Z,-2.72
2018-02-25T10:42:43.726Z,-3.13
2018-02-25T10:45:11.290Z,-3.03
2018-02-25T10:47:38.756Z,-3.11
2018-02-25T10:50:06.233Z,-3.23
2018-02-25T10:52:33.707Z,-3.22
2018-02-25T10:55:01.164Z,-3.14
2018-02-25T10:57:28.628Z,-2.97
2018-02-25T10:59:56.181Z,-2.91
2018-02-25T11:02:23.655Z,-3.18
2018-02-25T11:04:51.146Z,-3.19
2018-02-25T11:07:18.633Z,-3.03
2018-02-25T11:09:46.159Z,-2.98
2018-02-25T11:12:13.617Z,-2.68
2018-02-25T11:14:41.103Z,-2.46
2018-02-25T11:17:08.569Z,-2.44
2018-02-25T11:19:36.022Z,-2.58
2018-02-25T11:22:03.494Z,-2.60
2018-02-25T11:24:30.943Z,-2.51
2018-02-25T11:26:58.674Z,-2.65
2018-02-25T11:29:26.125Z,-2.74
2018-02-25T11:31:53.573Z,-2.90
2018-02-25T11:34:21.067Z,-2.86
2018-02-25T11:36:48.529Z,-2.82
2018-02-25T11:39:15.986Z,-2.73
2018-02-25T11:41:43.456Z,-2.50
2018-02-25T11:44:11.002Z,-2.48
2018-02-25T11:46:38.446Z,-2.57
2018-02-25T11:49:05.992Z,-2.50
2018-02-25T11:51:33.599Z,-2.45
2018-02-25T11:54:01.334Z,-2.29
2018-02-25T11:56:28.782Z,-1.90
2018-02-25T11:58:56.273Z,-1.68
2018-02-25T12:01:23.722Z,-2.04
2018-02-25T12:03:51.179Z,-2.31
2018-02-25T12:06:18.661Z,-2.41
2018-02-25T12:08:46.118Z,-2.34
2018-02-25T12:11:13.570Z,-2.18
2018-02-25T12:13:41.055Z,-2.05
2018-02-25T12:16:08.537Z,-1.99
2018-02-25T12:18:35.994Z,-1.91
2018-02-25T12:21:03.445Z,-1.76
2018-02-25T12:23:30.914Z,-1.67
2018-02-25T12:25:58.393Z,-1.87
2018-02-25T12:28:25.865Z,-1.91
2018-02-25T12:30:53.374Z,-2.07
2018-02-25T12:33:20.851Z,-2.00
2018-02-25T12:35:48.329Z,-1.98
2018-02-25T12:38:15.778Z,-1.90
2018-02-25T12:40:43.262Z,-1.78
2018-02-25T12:43:10.742Z,-1.96
2018-02-25T12:45:38.193Z,-2.11
2018-02-25T12:48:05.685Z,-2.08
2018-02-25T12:50:33.147Z,-2.05
2018-02-25T12:53:00.691Z,-2.07
2018-02-25T12:55:28.408Z,-1.89
2018-02-25T12:57:55.862Z,-1.78
2018-02-25T13:00:23.322Z,-1.78
2018-02-25T13:02:50.794Z,-1.80
2018-02-25T13:05:18.256Z,-1.59
2018-02-25T13:07:45.706Z,-1.77
2018-02-25T13:10:13.192Z,-1.70
2018-02-25T13:12:40.639Z,-1.49
2018-02-25T13:15:08.150Z,-1.80
2018-02-25T13:17:35.595Z,-1.93
2018-02-25T13:20:03.046Z,-1.66
2018-02-25T13:22:30.632Z,-1.44
2018-02-25T13:24:58.078Z,-1.42
2018-02-25T13:27:25.533Z,-1.52
2018-02-25T13:29:53.078Z,-1.44
2018-02-25T13:32:20.526Z,-1.57
2018-02-25T13:34:48.038Z,-1.50
2018-02-25T13:37:15.499Z,-1.32
2018-02-25T13:39:42.950Z,-1.56
2018-02-25T13:42:10.409Z,-1.32
2018-02-25T13:44:37.953Z,-1.17
2018-02-25T13:47:05.405Z,-1.26
2018-02-25T13:49:32.862Z,-1.57
2018-02-25T13:52:00.335Z,-1.39
2018-02-25T13:54:27.800Z,-1.48
2018-02-25T13:56:55.290Z,-1.64
2018-02-25T13:59:22.746Z,-1.71
2018-02-25T14:01:50.203Z,-1.76
2018-02-25T14:04:17.759Z,-1.94
2018-02-25T14:06:45.371Z,-1.79
2018-02-25T14:09:12.825Z,-1.48
2018-02-25T14:11:40.290Z,-1.12
2018-02-25T14:14:07.743Z,-1.33
2018-02-25T14:16:35.218Z,-1.45
2018-02-25T14:19:02.687Z,-1.37
2018-02-25T14:21:30.214Z,-1.07
2018-02-25T14:23:57.688Z,-1.13
2018-02-25T14:26:25.145Z,-1.09
2018-02-25T14:28:52.601Z,-1.02
2018-02-25T14:31:20.105Z,-1.23
2018-02-25T14:33:47.587Z,-1.38
2018-02-25T14:36:15.122Z,-1.23
2018-02-25T14:38:42.723Z,-1.09
2018-02-25T14:41:10.199Z,-1.31
2018-02-25T14:43:37.711Z,-1.27
2018-02-25T14:46:05.177Z,-1.17
2018-02-25T14:48:32.711Z,-1.15
2018-02-25T14:51:00.315Z,-0.97
2018-02-25T14:53:27.785Z,-0.79
2018-02-25T14:55:55.269Z,-0.83
2018-02-25T14:58:22.774Z,-1.02
2018-02-25T15:00:50.245Z,-1.14
2018-02-25T15:03:17.701Z,-1.23
2018-02-25T15:05:45.519Z,-1.48
2018-02-25T15:08:12.950Z,-1.58
2018-02-25T15:10:40.446Z,-1.49
2018-02-25T15:13:07.938Z,-1.40
2018-02-25T15:15:35.402Z,-1.53
2018-02-25T15:18:02.880Z,-1.64
2018-02-25T15:20:30.349Z,-1.74
2018-02-25T15:22:57.834Z,-1.75
2018-02-25T15:25:25.297Z,-1.71
2018-02-25T15:27:52.783Z,-1.70
2018-02-25T15:30:20.306Z,-1.84
2018-02-25T15:32:47.768Z,-1.93
2018-02-25T15:35:15.307Z,-1.99
2018-02-25T15:37:42.818Z,-2.00
2018-02-25T15:40:10.292Z,-2.01
2018-02-25T15:42:37.746Z,-2.06
2018-02-25T15:45:05.250Z,-2.03
2018-02-25T15:47:32.706Z,-2.04
2018-02-25T15:50:00.166Z,-2.08
2018-02-25T15:52:27.717Z,-2.15
2018-02-25T15:54:56.092Z,-2.18
2018-02-25T15:57:23.565Z,-2.14
2018-02-25T15:59:51.031Z,-2.08
2018-02-25T16:02:18.525Z,-1.98
2018-02-25T16:04:45.983Z,-1.90
2018-02-25T16:07:13.485Z,-1.89
2018-02-25T16:09:40.970Z,-1.99
2018-02-25T16:12:08.422Z,-2.00
2018-02-25T16:14:35.877Z,-2.04
2018-02-25T16:17:03.382Z,-2.07
2018-02-25T16:19:30.917Z,-2.16
2018-02-25T16:21:58.377Z,-2.26
2018-02-25T16:24:25.854Z,-2.36
2018-02-25T16:26:53.313Z,-2.38
2018-02-25T16:29:20.921Z,-2.38
2018-02-25T16:31:48.377Z,-2.39
2018-02-25T16:34:15.826Z,-2.41
2018-02-25T16:36:43.335Z,-2.45
2018-02-25T16:39:10.797Z,-2.53
2018-02-25T16:41:38.293Z,-2.55
2018-02-25T16:44:05.771Z,-2.66
2018-02-25T16:46:33.230Z,-2.67
2018-02-25T16:49:00.711Z,-2.72
2018-02-25T16:51:28.178Z,-2.77
2018-02-25T16:53:55.675Z,-2.76
2018-02-25T16:56:23.149Z,-2.77
2018-02-25T16:58:50.605Z,-2.79
2018-02-25T17:01:18.186Z,-2.76
2018-02-25T17:03:45.715Z,-2.76
2018-02-25T17:06:13.174Z,-2.79
2018-02-25T17:08:40.758Z,-2.79
2018-02-25T17:11:08.206Z,-2.79
2018-02-25T17:13:35.738Z,-2.85
2018-02-25T17:16:03.218Z,-2.90
2018-02-25T17:18:30.682Z,-2.92
2018-02-25T17:20:58.215Z,-2.93
2018-02-25T17:23:25.685Z,-2.92
2018-02-25T17:25:53.285Z,-2.89
2018-02-25T17:28:20.771Z,-2.83
2018-02-25T17:30:48.246Z,-2.78
2018-02-25T17:33:15.815Z,-2.75
2018-02-25T17:35:43.362Z,-2.69
2018-02-25T17:38:10.930Z,-2.66
2018-02-25T17:40:38.408Z,-2.62
2018-02-25T17:43:05.882Z,-2.64
2018-02-25T17:45:33.342Z,-2.62
2018-02-25T17:48:00.868Z,-2.63
2018-02-25T17:50:28.363Z,-2.63
2018-02-25T17:52:55.857Z,-2.65
2018-02-25T17:55:33.123Z,-2.63
2018-02-25T17:57:50.887Z,-2.62
2018-02-25T18:00:18.346Z,-2.63
2018-02-25T18:02:45.849Z,-2.66
2018-02-25T18:05:13.306Z,-2.63
2018-02-25T18:07:40.767Z,-2.61
2018-02-25T18:10:08.259Z,-2.69
2018-02-25T18:12:35.782Z,-2.72
2018-02-25T18:15:03.304Z,-2.70
2018-02-25T18:17:30.834Z,-2.65
2018-02-25T18:19:58.312Z,-2.58
2018-02-25T18:22:25.867Z,-2.61
2018-02-25T18:24:53.335Z,-2.61
2018-02-25T18:27:20.794Z,-2.63
2018-02-25T18:29:48.301Z,-2.62
2018-02-25T18:32:15.757Z,-2.68
2018-02-25T18:34:43.231Z,-2.77
2018-02-25T18:37:10.725Z,-2.80
2018-02-25T18:39:38.210Z,-2.83
2018-02-25T18:42:05.733Z,-2.92
2018-02-25T18:44:33.282Z,-2.95
2018-02-25T18:47:00.769Z,-2.98
2018-02-25T18:49:28.351Z,-2.99
2018-02-25T18:51:55.969Z,-2.96
2018-02-25T18:54:23.448Z,-2.88
2018-02-25T18:56:50.910Z,-2.80
2018-02-25T18:59:18.389Z,-2.87
2018-02-25T19:01:45.905Z,-2.83
2018-02-25T19:04:13.505Z,-2.80
2018-02-25T19:06:40.994Z,-2.84
2018-02-25T19:09:08.450Z,-2.88
2018-02-25T19:11:35.933Z,-2.87
2018-02-25T19:14:03.425Z,-2.86
2018-02-25T19:16:30.951Z,-2.83
2018-02-25T19:18:58.415Z,-2.91
2018-02-25T19:21:25.903Z,-2.95
2018-02-25T19:23:53.433Z,-3.03
2018-02-25T19:26:20.901Z,-3.07
2018-02-25T19:28:48.382Z,-3.11
2018-02-25T19:31:15.868Z,-3.13
2018-02-25T19:33:43.338Z,-3.17
2018-02-25T19:36:16.379Z,-3.27
2018-02-25T19:38:49.423Z,-3.43
2018-02-25T19:41:22.407Z,-3.71
2018-02-25T19:43:49.985Z,-3.83
2018-02-25T19:46:17.438Z,-3.84
2018-02-25T19:48:44.938Z,-3.84
2018-02-25T19:51:12.448Z,-3.82
2018-02-25T19:53:40.009Z,-3.79
2018-02-25T19:56:07.506Z,-3.68
2018-02-25T19:58:35.040Z,-3.50
2018-02-25T20:01:02.518Z,-3.41
2018-02-25T20:03:30.008Z,-3.34
2018-02-25T20:05:57.509Z,-3.39
2018-02-25T20:08:25.006Z,-3.41
2018-02-25T20:10:52.487Z,-3.48
2018-02-25T20:13:19.985Z,-3.52
2018-02-25T20:15:47.465Z,-3.53
2018-02-25T20:18:15.032Z,-3.58
2018-02-25T20:20:42.617Z,-3.79
2018-02-25T20:23:10.103Z,-3.80
2018-02-25T20:25:37.605Z,-3.84
2018-02-25T20:28:05.123Z,-4.04
2018-02-25T20:30:32.595Z,-4.12
2018-02-25T20:33:00.079Z,-4.10
2018-02-25T20:35:27.570Z,-4.06
2018-02-25T20:37:55.043Z,-4.02
2018-02-25T20:40:22.510Z,-4.02
2018-02-25T20:42:50.020Z,-4.04
2018-02-25T20:45:17.486Z,-4.02
2018-02-25T20:47:44.963Z,-4.05
2018-02-25T20:50:12.537Z,-3.95
2018-02-25T20:52:40.011Z,-3.90
2018-02-25T20:55:07.483Z,-3.92
2018-02-25T20:57:34.971Z,-3.89
2018-02-25T21:00:02.447Z,-3.90
2018-02-25T21:02:29.912Z,-3.76
2018-02-25T21:04:57.400Z,-3.50
2018-02-25T21:07:24.920Z,-3.56
2018-02-25T21:09:52.394Z,-3.59
2018-02-25T21:12:19.879Z,-3.70
2018-02-25T21:14:47.367Z,-3.92
2018-02-25T21:17:14.834Z,-4.08
2018-02-25T21:19:42.431Z,-4.22
2018-02-25T21:22:09.995Z,-4.32
2018-02-25T21:24:37.475Z,-4.40
2018-02-25T21:27:04.962Z,-4.45
2018-02-25T21:29:32.428Z,-4.49
2018-02-25T21:31:59.927Z,-4.51
2018-02-25T21:34:27.424Z,-4.52
2018-02-25T21:36:54.885Z,-4.56
2018-02-25T21:39:22.376Z,-4.56
2018-02-25T21:41:49.837Z,-4.58
2018-02-25T21:44:17.322Z,-4.60
2018-02-25T21:46:44.814Z,-4.61
2018-02-25T21:49:12.327Z,-4.57
2018-02-25T21:51:39.771Z,-4.61
2018-02-25T21:54:12.926Z,-4.59
2018-02-25T21:56:45.950Z,-4.60
2018-02-25T21:59:19.179Z,-4.62
2018-02-25T22:01:52.243Z,-4.61
2018-02-25T22:04:19.715Z,-4.60
2018-02-25T22:06:47.204Z,-4.59
2018-02-25T22:09:14.691Z,-4.57
2018-02-25T22:11:42.180Z,-4.57
2018-02-25T22:14:09.669Z,-4.62
2018-02-25T22:16:37.155Z,-4.65
2018-02-25T22:19:04.632Z,-4.69
2018-02-25T22:21:32.151Z,-4.68
2018-02-25T22:23:59.658Z,-4.69
2018-02-25T22:26:27.138Z,-4.71
2018-02-25T22:28:54.627Z,-4.71
2018-02-25T22:31:22.086Z,-4.71
2018-02-25T22:33:49.595Z,-4.74
2018-02-25T22:36:17.089Z,-4.76
2018-02-25T22:38:44.609Z,-4.78
2018-02-25T22:41:12.087Z,-4.75
2018-02-25T22:43:39.664Z,-4.74
2018-02-25T22:46:07.138Z,-4.75
2018-02-25T22:48:34.631Z,-4.78
2018-02-25T22:51:02.116Z,-4.79
2018-02-25T22:53:29.619Z,-4.80
2018-02-25T22:55:57.104Z,-4.76
2018-02-25T22:58:24.722Z,-4.71
2018-02-25T23:00:52.217Z,-4.69
2018-02-25T23:03:19.796Z,-4.66
2018-02-25T23:05:47.295Z,-4.64
2018-02-25T23:08:14.770Z,-4.63
2018-02-25T23:10:42.258Z,-4.58
2018-02-25T23:13:09.747Z,-4.57
2018-02-25T23:15:37.214Z,-4.58
2018-02-25T23:18:04.734Z,-4.64
2018-02-25T23:20:32.211Z,-4.74
2018-02-25T23:22:59.689Z,-4.76
2018-02-25T23:25:27.173Z,-4.80
2018-02-25T23:27:54.679Z,-4.84
2018-02-25T23:30:22.230Z,-4.87
2018-02-25T23:32:49.766Z,-4.96
2018-02-25T23:35:17.221Z,-5.00
2018-02-25T23:37:44.693Z,-5.06
2018-02-25T23:40:12.263Z,-5.08
2018-02-25T23:42:39.742Z,-5.08
2018-02-25T23:45:07.231Z,-5.09
2018-02-25T23:47:34.702Z,-5.14
2018-02-25T23:50:02.195Z,-5.19
2018-02-25T23:52:29.672Z,-5.24
2018-02-25T23:54:57.207Z,-5.25
2018-02-25T23:57:24.695Z,-5.28
2018-02-25T23:59:52.150Z,-5.28
